createdAt,value
2018-07-15T00:01:16.187Z,97994.58
2018-07-15T00:03:44.348Z,97988.67
2018-07-15T00:06:12.611Z,97992.20
2018-07-15T00:08:40.814Z,97994.95
2018-07-15T00:11:08.985Z,97997.31
2018-07-15T00:13:37.170Z,97991.22
2018-07-15T00:16:05.362Z,98004.02
2018-07-15T00:18:33.562Z,97997.74
2018-07-15T00:21:01.800Z,98000.34
2018-07-15T00:23:29.976Z,97993.27
2018-07-15T00:25:58.141Z,97994.09
2018-07-15T00:28:26.354Z,97999.05
2018-07-15T00:30:54.574Z,97994.91
2018-07-15T00:33:22.770Z,97994.31
2018-07-15T00:35:50.966Z,97993.12
2018-07-15T00:38:19.166Z,97997.08
2018-07-15T00:40:47.355Z,97993.53
2018-07-15T00:43:15.573Z,97994.13
2018-07-15T00:45:43.753Z,97989.20
2018-07-15T00:48:11.945Z,97986.61
2018-07-15T00:50:40.112Z,97985.20
2018-07-15T00:53:08.305Z,97981.45
2018-07-15T00:55:36.475Z,97975.70
2018-07-15T00:58:04.748Z,97972.73
2018-07-15T01:00:38.253Z,97972.53
2018-07-15T01:03:06.435Z,97974.48
2018-07-15T01:05:34.607Z,97975.05
2018-07-15T01:08:02.787Z,97966.19
2018-07-15T01:10:31.300Z,97962.22
2018-07-15T01:12:59.472Z,97961.43
2018-07-15T01:15:27.648Z,97965.35
2018-07-15T01:17:55.814Z,97962.79
2018-07-15T01:20:24.013Z,97960.03
2018-07-15T01:22:52.463Z,97953.94
2018-07-15T01:25:20.620Z,97964.35
2018-07-15T01:27:48.792Z,97962.78
2018-07-15T01:30:16.975Z,97974.88
2018-07-15T01:32:45.218Z,97974.62
2018-07-15T01:35:13.388Z,97972.03
2018-07-15T01:37:41.569Z,97968.92
2018-07-15T01:40:09.734Z,97969.52
2018-07-15T01:42:37.984Z,97969.33
2018-07-15T01:45:06.209Z,97967.34
2018-07-15T01:47:34.386Z,97967.73
2018-07-15T01:50:02.563Z,97965.35
2018-07-15T01:52:30.742Z,97964.34
2018-07-15T01:54:58.914Z,97961.58
2018-07-15T01:57:27.089Z,97966.65
2018-07-15T01:59:55.274Z,97960.78
2018-07-15T02:02:23.516Z,97955.07
2018-07-15T02:04:51.690Z,97954.22
2018-07-15T02:07:19.866Z,97948.36
2018-07-15T02:09:48.038Z,97943.20
2018-07-15T02:12:16.207Z,97945.14
2018-07-15T02:14:44.452Z,97942.76
2018-07-15T02:17:12.857Z,97939.03
2018-07-15T02:19:41.066Z,97934.12
2018-07-15T02:22:09.637Z,97934.91
2018-07-15T02:24:37.881Z,97941.40
2018-07-15T02:27:06.093Z,97938.83
2018-07-15T02:29:34.317Z,97940.00
2018-07-15T02:32:02.691Z,97936.48
2018-07-15T02:34:30.974Z,97937.44
2018-07-15T02:36:59.156Z,97930.36
2018-07-15T02:39:27.327Z,97939.00
2018-07-15T02:41:55.490Z,97945.50
2018-07-15T02:44:23.828Z,97941.56
2018-07-15T02:46:51.986Z,97947.05
2018-07-15T02:49:20.176Z,97944.86
2018-07-15T02:51:48.354Z,97946.22
2018-07-15T02:54:16.565Z,97947.37
2018-07-15T02:56:44.730Z,97949.48
2018-07-15T02:59:12.947Z,97945.92
2018-07-15T03:01:41.112Z,97944.14
2018-07-15T03:04:09.331Z,97942.73
2018-07-15T03:06:39.195Z,97947.25
2018-07-15T03:09:09.557Z,97942.54
2018-07-15T03:11:37.742Z,97947.42
2018-07-15T03:14:06.166Z,97949.19
2018-07-15T03:16:34.521Z,97950.77
2018-07-15T03:19:03.065Z,97942.28
2018-07-15T03:21:31.359Z,97950.94
2018-07-15T03:23:59.536Z,97955.24
2018-07-15T03:26:27.696Z,97957.91
2018-07-15T03:28:55.869Z,97960.20
2018-07-15T03:31:24.027Z,97955.20
2018-07-15T03:33:52.195Z,97957.39
2018-07-15T03:36:20.409Z,97968.44
2018-07-15T03:38:48.600Z,97958.67
2018-07-15T03:41:16.779Z,97955.84
2018-07-15T03:43:44.962Z,97956.22
2018-07-15T03:46:13.126Z,97962.66
2018-07-15T03:48:41.298Z,97963.65
2018-07-15T03:51:09.474Z,97960.26
2018-07-15T03:53:44.372Z,97963.88
2018-07-15T03:56:12.574Z,97962.23
2018-07-15T03:58:40.746Z,97960.33
2018-07-15T04:01:08.946Z,97963.61
2018-07-15T04:03:37.403Z,97960.78
2018-07-15T04:06:05.578Z,97953.53
2018-07-15T04:08:33.763Z,97955.77
2018-07-15T04:11:01.922Z,97950.97
2018-07-15T04:13:36.705Z,97954.37
2018-07-15T04:16:04.925Z,97948.17
2018-07-15T04:18:33.103Z,97951.55
2018-07-15T04:21:01.276Z,97948.23
2018-07-15T04:23:29.459Z,97945.18
2018-07-15T04:25:57.633Z,97941.46
2018-07-15T04:28:25.805Z,97939.38
2018-07-15T04:30:54.011Z,97941.20
2018-07-15T04:33:22.172Z,97946.73
2018-07-15T04:35:50.354Z,97944.43
2018-07-15T04:38:18.575Z,97950.94
2018-07-15T04:40:47.183Z,97953.73
2018-07-15T04:43:15.384Z,97952.74
2018-07-15T04:45:43.574Z,97954.34
2018-07-15T04:48:11.816Z,97949.77
2018-07-15T04:50:40.000Z,97953.70
2018-07-15T04:53:08.197Z,97949.34
2018-07-15T04:55:36.734Z,97953.67
2018-07-15T04:58:04.948Z,97949.52
2018-07-15T05:00:33.450Z,97951.30
2018-07-15T05:03:01.942Z,97942.00
2018-07-15T05:05:30.126Z,97938.80
2018-07-15T05:07:58.310Z,97942.37
2018-07-15T05:10:26.489Z,97945.34
2018-07-15T05:12:54.661Z,97949.45
2018-07-15T05:15:22.863Z,97941.90
2018-07-15T05:17:51.037Z,97947.38
2018-07-15T05:20:19.209Z,97944.16
2018-07-15T05:22:47.433Z,97939.78
2018-07-15T05:25:15.624Z,97943.69
2018-07-15T05:27:43.801Z,97941.31
2018-07-15T05:30:12.092Z,97944.66
2018-07-15T05:32:40.317Z,97950.24
2018-07-15T05:35:08.731Z,97949.58
2018-07-15T05:37:36.977Z,97944.73
2018-07-15T05:40:05.158Z,97941.29
2018-07-15T05:42:33.474Z,97943.99
2018-07-15T05:45:01.708Z,97944.50
2018-07-15T05:47:29.887Z,97945.13
2018-07-15T05:49:58.090Z,97946.63
2018-07-15T05:52:26.309Z,97953.17
2018-07-15T05:54:54.572Z,97956.76
2018-07-15T05:57:22.908Z,97966.53
2018-07-15T05:59:51.100Z,97961.59
2018-07-15T06:02:19.303Z,97970.73
2018-07-15T06:04:47.498Z,97969.73
2018-07-15T06:07:15.690Z,97973.55
2018-07-15T06:09:43.861Z,97974.06
2018-07-15T06:12:12.040Z,97978.11
2018-07-15T06:14:40.234Z,97976.31
2018-07-15T06:17:08.701Z,97974.98
2018-07-15T06:19:36.870Z,97978.01
2018-07-15T06:22:05.042Z,97982.90
2018-07-15T06:24:33.238Z,97978.30
2018-07-15T06:27:01.519Z,97975.64
2018-07-15T06:29:29.690Z,97992.77
2018-07-15T06:31:57.941Z,97978.03
2018-07-15T06:34:26.019Z,97983.63
2018-07-15T06:36:54.281Z,97982.81
2018-07-15T06:39:22.453Z,97974.88
2018-07-15T06:41:50.658Z,97973.87
2018-07-15T06:44:18.878Z,97977.11
2018-07-15T06:46:47.063Z,97976.27
2018-07-15T06:49:15.229Z,97984.42
2018-07-15T06:51:43.421Z,97982.97
2018-07-15T06:54:11.603Z,97977.12
2018-07-15T06:56:40.102Z,97977.89
2018-07-15T06:59:08.286Z,97979.97
2018-07-15T07:01:36.756Z,97976.55
2018-07-15T07:04:05.263Z,97980.64
2018-07-15T07:06:34.333Z,97975.47
2018-07-15T07:09:03.048Z,97969.48
2018-07-15T07:11:31.618Z,97969.12
2018-07-15T07:13:59.785Z,97972.81
2018-07-15T07:16:28.289Z,97975.52
2018-07-15T07:18:56.442Z,97973.56
2018-07-15T07:21:24.631Z,97975.71
2018-07-15T07:23:53.401Z,97976.53
2018-07-15T07:26:21.913Z,97977.14
2018-07-15T07:28:50.278Z,97975.95
2018-07-15T07:31:18.385Z,97969.49
2018-07-15T07:33:46.665Z,97970.21
2018-07-15T07:36:14.915Z,97969.83
2018-07-15T07:38:43.141Z,97966.25
2018-07-15T07:41:11.531Z,97972.17
2018-07-15T07:43:39.877Z,97968.61
2018-07-15T07:46:08.050Z,97970.82
2018-07-15T07:48:36.635Z,97974.05
2018-07-15T07:51:05.066Z,97975.79
2018-07-15T07:53:33.235Z,97975.20
2018-07-15T07:56:01.561Z,97970.06
2018-07-15T07:58:29.763Z,97967.45
2018-07-15T08:00:57.940Z,97967.08
2018-07-15T08:03:26.294Z,97975.05
2018-07-15T08:05:54.569Z,97968.30
2018-07-15T08:08:22.751Z,97973.98
2018-07-15T08:10:50.917Z,97973.43
2018-07-15T08:13:19.550Z,97971.48
2018-07-15T08:15:48.181Z,97973.37
2018-07-15T08:18:17.496Z,97975.03
2018-07-15T08:20:45.668Z,97974.31
2018-07-15T08:23:13.887Z,97973.95
2018-07-15T08:25:42.249Z,97976.13
2018-07-15T08:28:10.575Z,97968.43
2018-07-15T08:30:50.097Z,97973.63
2018-07-15T08:33:18.279Z,97967.25
2018-07-15T08:35:46.469Z,97973.57
2018-07-15T08:38:14.742Z,97972.59
2018-07-15T08:40:43.361Z,97973.64
2018-07-15T08:43:11.805Z,97976.41
2018-07-15T08:45:40.053Z,97978.97
2018-07-15T08:48:08.592Z,97973.28
2018-07-15T08:50:38.296Z,97974.34
2018-07-15T08:53:10.223Z,97969.30
2018-07-15T08:55:41.643Z,97968.91
2018-07-15T08:58:11.047Z,97966.80
2018-07-15T09:00:39.310Z,97965.14
2018-07-15T09:03:07.503Z,97969.46
2018-07-15T09:05:35.676Z,97974.37
2018-07-15T09:08:03.838Z,97961.08
2018-07-15T09:10:35.844Z,97965.73
2018-07-15T09:13:06.923Z,97957.27
2018-07-15T09:15:35.122Z,97958.52
2018-07-15T09:18:03.319Z,97959.14
2018-07-15T09:20:31.499Z,97959.16
2018-07-15T09:22:59.704Z,97951.48
2018-07-15T09:25:27.870Z,97948.16
2018-07-15T09:27:56.097Z,97947.02
2018-07-15T09:30:24.366Z,97941.55
2018-07-15T09:32:52.552Z,97942.28
2018-07-15T09:35:20.750Z,97943.12
2018-07-15T09:37:49.394Z,97935.73
2018-07-15T09:40:17.850Z,97929.39
2018-07-15T09:42:46.031Z,97926.59
2018-07-15T09:45:14.234Z,97918.27
2018-07-15T09:47:42.439Z,97916.17
2018-07-15T09:50:10.613Z,97908.20
2018-07-15T09:52:38.967Z,97911.50
2018-07-15T09:55:07.425Z,97905.53
2018-07-15T09:57:35.614Z,97908.73
2018-07-15T10:00:05.311Z,97908.42
2018-07-15T10:02:38.189Z,97901.96
2018-07-15T10:05:06.401Z,97897.67
2018-07-15T10:07:34.589Z,97894.62
2018-07-15T10:10:02.825Z,97889.20
2018-07-15T10:12:31.021Z,97886.21
2018-07-15T10:14:59.237Z,97881.94
2018-07-15T10:17:27.481Z,97873.56
2018-07-15T10:19:55.715Z,97869.33
2018-07-15T10:22:23.902Z,97867.52
2018-07-15T10:24:52.290Z,97866.75
2018-07-15T10:27:20.814Z,97854.88
2018-07-15T10:29:49.006Z,97859.87
2018-07-15T10:32:17.201Z,97845.28
2018-07-15T10:34:45.430Z,97846.92
2018-07-15T10:37:13.762Z,97846.31
2018-07-15T10:39:41.950Z,97847.20
2018-07-15T10:42:10.156Z,97836.89
2018-07-15T10:44:38.421Z,97824.86
2018-07-15T10:47:06.715Z,97825.95
2018-07-15T10:49:35.129Z,97820.38
2018-07-15T10:52:03.357Z,97812.44
2018-07-15T10:54:31.585Z,97813.44
2018-07-15T10:56:59.963Z,97811.86
2018-07-15T10:59:28.161Z,97802.45
2018-07-15T11:01:56.453Z,97801.75
2018-07-15T11:04:24.645Z,97794.16
2018-07-15T11:06:52.941Z,97798.05
2018-07-15T11:09:21.102Z,97801.75
2018-07-15T11:11:49.298Z,97804.25
2018-07-15T11:14:17.540Z,97787.67
2018-07-15T11:16:45.816Z,97800.66
2018-07-15T11:19:14.102Z,97794.62
2018-07-15T11:21:42.367Z,97795.17
2018-07-15T11:24:10.651Z,97799.63
2018-07-15T11:26:38.864Z,97791.80
2018-07-15T11:29:07.035Z,97778.48
2018-07-15T11:31:35.215Z,97776.33
2018-07-15T11:34:03.397Z,97777.21
2018-07-15T11:36:31.577Z,97769.11
2018-07-15T11:38:59.911Z,97769.63
2018-07-15T11:41:28.062Z,97772.58
2018-07-15T11:43:56.350Z,97762.41
2018-07-15T11:46:24.517Z,97757.44
2018-07-15T11:48:52.761Z,97755.37
2018-07-15T11:51:20.925Z,97749.06
2018-07-15T11:53:49.109Z,97749.22
2018-07-15T11:56:17.621Z,97752.29
2018-07-15T11:58:45.798Z,97748.03
2018-07-15T12:01:13.962Z,97749.98
2018-07-15T12:03:42.132Z,97756.95
2018-07-15T12:06:10.562Z,97750.39
2018-07-15T12:08:38.723Z,97750.74
2018-07-15T12:11:07.135Z,97754.19
2018-07-15T12:13:35.240Z,97750.84
2018-07-15T12:16:03.494Z,97739.91
2018-07-15T12:18:31.740Z,97742.80
2018-07-15T12:20:59.909Z,97744.77
2018-07-15T12:23:28.076Z,97746.94
2018-07-15T12:25:56.246Z,97750.11
2018-07-15T12:28:24.507Z,97733.31
2018-07-15T12:30:52.684Z,97726.66
2018-07-15T12:33:21.095Z,97719.31
2018-07-15T12:35:49.668Z,97720.66
2018-07-15T12:38:17.966Z,97711.55
2018-07-15T12:40:46.153Z,97711.23
2018-07-15T12:43:14.365Z,97720.91
2018-07-15T12:45:42.558Z,97717.93
2018-07-15T12:48:11.030Z,97721.41
2018-07-15T12:50:39.217Z,97728.19
2018-07-15T12:53:07.696Z,97732.53
2018-07-15T12:55:36.192Z,97753.98
2018-07-15T12:58:04.394Z,97775.27
2018-07-15T13:00:32.686Z,97803.39
2018-07-15T13:03:00.965Z,97820.13
2018-07-15T13:05:29.197Z,97837.23
2018-07-15T13:07:57.398Z,97862.35
2018-07-15T13:10:25.938Z,97874.85
2018-07-15T13:12:54.137Z,97881.34
2018-07-15T13:15:22.317Z,97880.68
2018-07-15T13:17:50.515Z,97877.00
2018-07-15T13:20:19.017Z,97873.55
2018-07-15T13:22:47.262Z,97858.31
2018-07-15T13:25:15.459Z,97841.34
2018-07-15T13:27:43.640Z,97844.60
2018-07-15T13:30:11.880Z,97843.83
2018-07-15T13:32:40.083Z,97835.84
2018-07-15T13:35:08.259Z,97841.00
2018-07-15T13:37:36.478Z,97836.71
2018-07-15T13:40:04.717Z,97827.02
2018-07-15T13:42:32.970Z,97829.54
2018-07-15T13:45:01.185Z,97823.42
2018-07-15T13:47:29.423Z,97820.16
2018-07-15T13:49:57.861Z,97820.39
2018-07-15T13:52:26.048Z,97810.97
2018-07-15T13:54:54.317Z,97800.92
2018-07-15T13:57:22.541Z,97803.22
2018-07-15T13:59:50.713Z,97804.98
2018-07-15T14:02:18.925Z,97808.55
2018-07-15T14:04:47.370Z,97804.58
2018-07-15T14:07:15.553Z,97804.11
2018-07-15T14:09:43.826Z,97812.64
2018-07-15T14:12:12.078Z,97811.62
2018-07-15T14:14:40.593Z,97807.48
2018-07-15T14:17:08.779Z,97817.13
2018-07-15T14:19:37.023Z,97819.66
2018-07-15T14:22:05.220Z,97814.72
2018-07-15T14:24:33.505Z,97810.92
2018-07-15T14:27:01.720Z,97817.06
2018-07-15T14:29:29.997Z,97814.24
2018-07-15T14:31:58.182Z,97807.95
2018-07-15T14:34:26.554Z,97812.06
2018-07-15T14:36:55.110Z,97811.45
2018-07-15T14:39:31.684Z,97821.22
2018-07-15T14:41:59.848Z,97820.28
2018-07-15T14:44:28.014Z,97822.73
2018-07-15T14:46:56.441Z,97832.14
2018-07-15T14:49:25.122Z,97848.30
2018-07-15T14:51:53.506Z,97853.43
2018-07-15T14:54:21.702Z,97856.45
2018-07-15T14:56:49.892Z,97861.88
2018-07-15T14:59:18.098Z,97865.42
2018-07-15T15:01:46.336Z,97867.33
2018-07-15T15:04:14.786Z,97883.73
2018-07-15T15:06:43.045Z,97884.45
2018-07-15T15:09:11.262Z,97889.19
2018-07-15T15:11:39.521Z,97890.28
2018-07-15T15:14:07.698Z,97892.45
2018-07-15T15:16:35.914Z,97896.55
2018-07-15T15:19:04.090Z,97888.44
2018-07-15T15:21:32.541Z,97877.62
2018-07-15T15:24:00.802Z,97879.33
2018-07-15T15:26:29.224Z,97869.02
2018-07-15T15:28:57.412Z,97864.42
2018-07-15T15:31:25.609Z,97857.38
2018-07-15T15:33:53.828Z,97851.95
2018-07-15T15:36:22.028Z,97846.75
2018-07-15T15:38:50.281Z,97844.87
2018-07-15T15:41:18.757Z,97841.11
2018-07-15T15:43:47.253Z,97843.46
2018-07-15T15:46:15.459Z,97840.36
2018-07-15T15:48:43.619Z,97833.31
2018-07-15T15:51:12.109Z,97832.41
2018-07-15T15:53:40.295Z,97828.72
2018-07-15T15:56:08.516Z,97823.70
2018-07-15T15:58:36.708Z,97824.38
2018-07-15T16:01:05.335Z,97827.27
2018-07-15T16:03:33.698Z,97818.55
2018-07-15T16:06:02.242Z,97817.61
2018-07-15T16:08:31.047Z,97814.83
2018-07-15T16:10:59.722Z,97798.72
2018-07-15T16:13:28.084Z,97796.91
2018-07-15T16:15:56.418Z,97789.75
2018-07-15T16:18:24.710Z,97796.84
2018-07-15T16:20:52.930Z,97793.78
2018-07-15T16:23:21.153Z,97794.26
2018-07-15T16:25:49.369Z,97804.39
2018-07-15T16:28:17.602Z,97809.19
2018-07-15T16:30:45.815Z,97807.34
2018-07-15T16:33:14.112Z,97813.77
2018-07-15T16:35:42.314Z,97808.52
2018-07-15T16:38:10.523Z,97805.95
2018-07-15T16:40:38.785Z,97802.49
2018-07-15T16:43:07.064Z,97801.50
2018-07-15T16:45:35.251Z,97798.08
2018-07-15T16:48:03.517Z,97795.03
2018-07-15T16:50:32.743Z,97793.30
2018-07-15T16:53:03.202Z,97792.53
2018-07-15T16:55:32.553Z,97801.98
2018-07-15T16:58:01.879Z,97802.89
2018-07-15T17:00:31.104Z,97805.94
2018-07-15T17:02:59.353Z,97808.42
2018-07-15T17:05:27.531Z,97804.21
2018-07-15T17:07:56.028Z,97803.59
2018-07-15T17:10:24.234Z,97810.34
2018-07-15T17:12:52.407Z,97803.59
2018-07-15T17:15:20.633Z,97810.81
2018-07-15T17:17:49.614Z,97798.91
2018-07-15T17:20:17.848Z,97789.34
2018-07-15T17:22:46.038Z,97788.45
2018-07-15T17:25:14.253Z,97788.22
2018-07-15T17:27:42.545Z,97785.18
2018-07-15T17:30:11.064Z,97779.44
2018-07-15T17:32:39.308Z,97776.41
2018-07-15T17:35:07.745Z,97771.53
2018-07-15T17:37:36.147Z,97770.31
2018-07-15T17:40:04.351Z,97766.05
2018-07-15T17:42:32.581Z,97760.48
2018-07-15T17:45:00.908Z,97759.96
2018-07-15T17:47:29.323Z,97752.30
2018-07-15T17:49:57.631Z,97748.39
2018-07-15T17:52:25.794Z,97745.95
2018-07-15T17:54:54.090Z,97743.08
2018-07-15T17:57:22.300Z,97749.25
2018-07-15T17:59:50.490Z,97745.88
2018-07-15T18:02:18.879Z,97750.92
2018-07-15T18:04:47.120Z,97753.70
2018-07-15T18:07:15.244Z,97751.87
2018-07-15T18:09:43.548Z,97750.29
2018-07-15T18:12:11.840Z,97758.28
2018-07-15T18:14:40.151Z,97765.00
2018-07-15T18:17:08.316Z,97766.34
2018-07-15T18:19:36.550Z,97770.44
2018-07-15T18:22:04.863Z,97776.03
2018-07-15T18:24:33.255Z,97784.98
2018-07-15T18:27:01.549Z,97795.84
2018-07-15T18:29:29.780Z,97803.38
2018-07-15T18:31:58.636Z,97801.85
2018-07-15T18:34:26.985Z,97797.69
2018-07-15T18:36:55.241Z,97806.47
2018-07-15T18:39:24.428Z,97805.12
2018-07-15T18:41:52.672Z,97804.80
2018-07-15T18:44:21.245Z,97812.46
2018-07-15T18:46:49.492Z,97823.09
2018-07-15T18:49:17.765Z,97827.20
2018-07-15T18:51:46.038Z,97821.42
2018-07-15T18:54:14.339Z,97829.97
2018-07-15T18:56:42.553Z,97828.04
2018-07-15T18:59:10.962Z,97830.33
2018-07-15T19:01:39.116Z,97835.64
2018-07-15T19:04:07.690Z,97825.55
2018-07-15T19:06:37.249Z,97827.89
2018-07-15T19:09:06.902Z,97826.95
2018-07-15T19:11:35.115Z,97830.02
2018-07-15T19:14:03.514Z,97842.60
2018-07-15T19:16:31.726Z,97838.99
2018-07-15T19:19:00.324Z,97842.67
2018-07-15T19:21:28.594Z,97849.30
2018-07-15T19:23:56.786Z,97851.98
2018-07-15T19:26:24.990Z,97856.52
2018-07-15T19:28:53.221Z,97864.06
2018-07-15T19:31:21.421Z,97871.36
2018-07-15T19:33:50.179Z,97872.88
2018-07-15T19:36:18.481Z,97870.49
2018-07-15T19:38:46.705Z,97873.59
2018-07-15T19:41:15.704Z,97870.36
2018-07-15T19:43:43.959Z,97871.27
2018-07-15T19:46:12.279Z,97873.63
2018-07-15T19:48:40.464Z,97871.99
2018-07-15T19:51:08.701Z,97871.25
2018-07-15T19:53:36.923Z,97872.86
2018-07-15T19:56:05.513Z,97874.92
2018-07-15T19:58:33.709Z,97864.52
2018-07-15T20:01:02.020Z,97862.08
2018-07-15T20:03:30.184Z,97865.08
2018-07-15T20:05:59.027Z,97860.96
2018-07-15T20:08:27.273Z,97858.48
2018-07-15T20:10:55.783Z,97863.85
2018-07-15T20:13:24.359Z,97858.16
2018-07-15T20:15:52.577Z,97867.30
2018-07-15T20:18:20.917Z,97868.73
2018-07-15T20:20:49.313Z,97865.41
2018-07-15T20:23:17.521Z,97869.24
2018-07-15T20:25:45.730Z,97862.93
2018-07-15T20:28:14.148Z,97866.91
2018-07-15T20:30:42.459Z,97873.92
2018-07-15T20:33:10.697Z,97878.46
2018-07-15T20:35:38.930Z,97883.27
2018-07-15T20:38:07.592Z,97877.92
2018-07-15T20:40:36.026Z,97878.92
2018-07-15T20:43:04.350Z,97878.36
2018-07-15T20:45:32.950Z,97886.47
2018-07-15T20:48:01.150Z,97878.77
2018-07-15T20:50:29.508Z,97877.98
2018-07-15T20:52:57.666Z,97882.39
2018-07-15T20:55:25.954Z,97885.17
2018-07-15T20:57:54.324Z,97880.63
2018-07-15T21:00:22.536Z,97878.42
2018-07-15T21:02:51.512Z,97883.98
2018-07-15T21:05:19.754Z,97880.44
2018-07-15T21:07:48.052Z,97873.55
2018-07-15T21:10:16.293Z,97870.39
2018-07-15T21:12:44.533Z,97874.73
2018-07-15T21:15:12.717Z,97870.03
2018-07-15T21:17:40.922Z,97872.17
2018-07-15T21:20:09.377Z,97870.38
2018-07-15T21:22:37.553Z,97875.30
2018-07-15T21:25:05.776Z,97871.78
2018-07-15T21:27:33.999Z,97866.47
2018-07-15T21:30:02.269Z,97873.75
2018-07-15T21:32:30.478Z,97864.69
2018-07-15T21:34:58.710Z,97867.25
2018-07-15T21:37:26.906Z,97859.97
2018-07-15T21:39:55.110Z,97861.35
2018-07-15T21:42:23.990Z,97863.88
2018-07-15T21:44:52.214Z,97860.53
2018-07-15T21:47:20.490Z,97860.14
2018-07-15T21:49:48.746Z,97865.46
2018-07-15T21:52:16.966Z,97872.55
2018-07-15T21:54:45.143Z,97871.17
2018-07-15T21:57:13.357Z,97866.25
2018-07-15T21:59:41.541Z,97867.63
2018-07-15T22:02:09.738Z,97872.15
2018-07-15T22:04:37.968Z,97876.28
2018-07-15T22:07:17.719Z,97872.73
2018-07-15T22:09:58.139Z,97875.29
2018-07-15T22:12:26.329Z,97876.43
2018-07-15T22:14:54.547Z,97868.56
2018-07-15T22:17:23.043Z,97872.09
2018-07-15T22:19:51.231Z,97871.71
2018-07-15T22:22:19.404Z,97874.66
2018-07-15T22:24:47.597Z,97869.93
2018-07-15T22:27:15.784Z,97868.95
2018-07-15T22:29:44.079Z,97870.73
2018-07-15T22:32:12.262Z,97862.27
2018-07-15T22:34:40.447Z,97860.69
2018-07-15T22:37:08.650Z,97862.27
2018-07-15T22:39:36.837Z,97865.22
2018-07-15T22:42:05.146Z,97862.65
2018-07-15T22:44:33.371Z,97861.86
2018-07-15T22:47:01.698Z,97856.94
2018-07-15T22:49:29.970Z,97853.59
2018-07-15T22:51:58.196Z,97854.53
2018-07-15T22:54:26.422Z,97856.30
2018-07-15T22:56:54.614Z,97862.78
2018-07-15T22:59:22.797Z,97866.14
2018-07-15T23:01:50.997Z,97867.30
2018-07-15T23:04:31.974Z,97872.58
2018-07-15T23:07:00.194Z,97879.47
2018-07-15T23:09:28.392Z,97887.72
2018-07-15T23:11:56.638Z,97888.16
2018-07-15T23:14:24.830Z,97894.41
2018-07-15T23:16:53.046Z,97892.02
2018-07-15T23:19:21.233Z,97879.81
2018-07-15T23:21:49.500Z,97883.13
2018-07-15T23:24:17.677Z,97883.13
2018-07-15T23:26:45.949Z,97881.69
2018-07-15T23:29:14.143Z,97877.73
2018-07-15T23:31:42.319Z,97873.61
2018-07-15T23:34:10.534Z,97868.88
2018-07-15T23:36:38.733Z,97874.59
2018-07-15T23:39:06.958Z,97871.25
2018-07-15T23:41:35.144Z,97872.20
2018-07-15T23:44:03.364Z,97879.63
2018-07-15T23:46:31.546Z,97875.33
2018-07-15T23:48:59.722Z,97882.23
2018-07-15T23:51:27.916Z,97881.66
2018-07-15T23:53:56.089Z,97883.22
2018-07-15T23:56:24.276Z,97882.84
2018-07-15T23:58:52.485Z,97877.70
